sensor_id;sensor_type;location;lat;lon;timestamp;pressure;altitude;pressure_sealevel;temperature;humidity
2549;BME280;1284;53.520;10.248;2023-01-30T00:00:18;100262.69;;;5.93;100.00
2549;BME280;1284;53.520;10.248;2023-01-30T00:02:44;100245.34;;;5.99;100.00
2549;BME280;1284;53.520;10.248;2023-01-30T00:07:55;100229.75;;;5.89;100.00
2549;BME280;1284;53.520;10.248;2023-01-30T00:10:20;100224.19;;;5.94;100.00
2549;BME280;1284;53.520;10.248;2023-01-30T00:12:46;100226.06;;;5.93;100.00
2549;BME280;1284;53.520;10.248;2023-01-30T00:15:11;100235.00;;;5.97;100.00
2549;BME280;1284;53.520;10.248;2023-01-30T00:17:36;100218.63;;;5.99;100.00
2549;BME280;1284;53.520;10.248;2023-01-30T00:20:02;100211.03;;;6.01;100.00
2549;BME280;1284;53.520;10.248;2023-01-30T00:22:28;100199.47;;;5.97;100.00
2549;BME280;1284;53.520;10.248;2023-01-30T00:24:53;100206.94;;;5.91;100.00
2549;BME280;1284;53.520;10.248;2023-01-30T00:27:19;100192.34;;;5.89;100.00
2549;BME280;1284;53.520;10.248;2023-01-30T00:29:44;100190.66;;;5.96;100.00
2549;BME280;1284;53.520;10.248;2023-01-30T00:32:10;100165.16;;;5.99;100.00
2549;BME280;1284;53.520;10.248;2023-01-30T00:34:39;100175.31;;;5.93;100.00
2549;BME280;1284;53.520;10.248;2023-01-30T00:37:04;100167.50;;;6.12;100.00
2549;BME280;1284;53.520;10.248;2023-01-30T00:39:29;100162.38;;;6.07;100.00
2549;BME280;1284;53.520;10.248;2023-01-30T00:41:55;100148.56;;;6.17;100.00
2549;BME280;1284;53.520;10.248;2023-01-30T00:44:39;100144.47;;;5.84;100.00
2549;BME280;1284;53.520;10.248;2023-01-30T00:47:23;100152.81;;;5.94;100.00
2549;BME280;1284;53.520;10.248;2023-01-30T00:49:51;100138.47;;;5.87;100.00
2549;BME280;1284;53.520;10.248;2023-01-30T00:52:17;100134.22;;;5.98;100.00
2549;BME280;1284;53.520;10.248;2023-01-30T00:54:42;100129.41;;;6.15;100.00
2549;BME280;1284;53.520;10.248;2023-01-30T00:57:08;100123.34;;;6.30;100.00
2549;BME280;1284;53.520;10.248;2023-01-30T00:59:33;100104.97;;;6.29;100.00
2549;BME280;1284;53.520;10.248;2023-01-30T01:01:59;100105.75;;;6.29;100.00
2549;BME280;1284;53.520;10.248;2023-01-30T01:04:24;100088.94;;;6.29;100.00
2549;BME280;1284;53.520;10.248;2023-01-30T01:06:50;100084.94;;;6.23;100.00
2549;BME280;1284;53.520;10.248;2023-01-30T01:09:15;100097.00;;;6.17;100.00
2549;BME280;1284;53.520;10.248;2023-01-30T01:11:41;100100.31;;;5.86;100.00
2549;BME280;1284;53.520;10.248;2023-01-30T01:14:06;100079.59;;;6.23;100.00
2549;BME280;1284;53.520;10.248;2023-01-30T01:16:32;100085.19;;;6.46;100.00
2549;BME280;1284;53.520;10.248;2023-01-30T01:18:59;100072.75;;;6.37;100.00
2549;BME280;1284;53.520;10.248;2023-01-30T01:21:24;100077.66;;;6.35;100.00
2549;BME280;1284;53.520;10.248;2023-01-30T01:23:54;100071.25;;;6.24;100.00
2549;BME280;1284;53.520;10.248;2023-01-30T01:26:20;100083.97;;;6.43;100.00
2549;BME280;1284;53.520;10.248;2023-01-30T01:28:46;100058.09;;;6.47;100.00
2549;BME280;1284;53.520;10.248;2023-01-30T01:31:13;100052.91;;;6.38;100.00
2549;BME280;1284;53.520;10.248;2023-01-30T01:33:39;100053.69;;;6.39;100.00
2549;BME280;1284;53.520;10.248;2023-01-30T01:36:05;100040.25;;;6.51;100.00
2549;BME280;1284;53.520;10.248;2023-01-30T01:38:30;100053.13;;;6.61;100.00
2549;BME280;1284;53.520;10.248;2023-01-30T01:40:56;100033.22;;;6.31;100.00
2549;BME280;1284;53.520;10.248;2023-01-30T01:44:03;100022.66;;;6.50;100.00
2549;BME280;1284;53.520;10.248;2023-01-30T01:49:16;100016.75;;;6.45;100.00
2549;BME280;1284;53.520;10.248;2023-01-30T01:54:28;99989.31;;;6.75;100.00
2549;BME280;1284;53.520;10.248;2023-01-30T01:57:00;100011.81;;;6.74;100.00
2549;BME280;1284;53.520;10.248;2023-01-30T01:59:34;100002.66;;;6.60;100.00
2549;BME280;1284;53.520;10.248;2023-01-30T02:02:06;99995.25;;;6.69;100.00
2549;BME280;1284;53.520;10.248;2023-01-30T02:04:35;99978.31;;;6.65;100.00
2549;BME280;1284;53.520;10.248;2023-01-30T02:07:22;99978.25;;;6.61;100.00
2549;BME280;1284;53.520;10.248;2023-01-30T02:09:49;99980.31;;;6.52;100.00
2549;BME280;1284;53.520;10.248;2023-01-30T02:12:16;99984.09;;;6.51;100.00
2549;BME280;1284;53.520;10.248;2023-01-30T02:14:42;99983.94;;;6.75;100.00
2549;BME280;1284;53.520;10.248;2023-01-30T02:17:08;99984.28;;;6.74;100.00
2549;BME280;1284;53.520;10.248;2023-01-30T02:19:56;99974.28;;;6.86;100.00
2549;BME280;1284;53.520;10.248;2023-01-30T02:25:32;99962.78;;;6.86;100.00
2549;BME280;1284;53.520;10.248;2023-01-30T02:28:29;99951.84;;;6.75;100.00
2549;BME280;1284;53.520;10.248;2023-01-30T02:31:16;99951.66;;;6.84;100.00
2549;BME280;1284;53.520;10.248;2023-01-30T02:42:44;99943.50;;;7.11;100.00
2549;BME280;1284;53.520;10.248;2023-01-30T02:48:05;99915.81;;;7.04;100.00
2549;BME280;1284;53.520;10.248;2023-01-30T02:50:44;99924.50;;;7.01;100.00
2549;BME280;1284;53.520;10.248;2023-01-30T02:53:12;99914.66;;;7.05;100.00
2549;BME280;1284;53.520;10.248;2023-01-30T02:55:40;99908.66;;;6.92;100.00
2549;BME280;1284;53.520;10.248;2023-01-30T02:58:07;99927.81;;;6.94;100.00
2549;BME280;1284;53.520;10.248;2023-01-30T03:06:21;99918.06;;;6.86;100.00
2549;BME280;1284;53.520;10.248;2023-01-30T03:11:21;99900.66;;;7.11;100.00
2549;BME280;1284;53.520;10.248;2023-01-30T03:19:03;99883.91;;;7.14;100.00
2549;BME280;1284;53.520;10.248;2023-01-30T03:21:31;99876.16;;;7.09;100.00
2549;BME280;1284;53.520;10.248;2023-01-30T03:23:57;99880.47;;;7.14;100.00
2549;BME280;1284;53.520;10.248;2023-01-30T03:26:29;99872.13;;;7.00;100.00
2549;BME280;1284;53.520;10.248;2023-01-30T03:28:59;99865.94;;;7.34;100.00
2549;BME280;1284;53.520;10.248;2023-01-30T03:31:25;99864.13;;;7.38;100.00
2549;BME280;1284;53.520;10.248;2023-01-30T03:33:51;99836.72;;;7.45;100.00
2549;BME280;1284;53.520;10.248;2023-01-30T03:36:16;99850.25;;;7.32;100.00
2549;BME280;1284;53.520;10.248;2023-01-30T03:38:43;99837.56;;;7.29;100.00
2549;BME280;1284;53.520;10.248;2023-01-30T03:41:09;99838.53;;;7.41;100.00
2549;BME280;1284;53.520;10.248;2023-01-30T03:43:35;99815.81;;;7.54;100.00
2549;BME280;1284;53.520;10.248;2023-01-30T03:46:02;99828.44;;;7.53;100.00
2549;BME280;1284;53.520;10.248;2023-01-30T03:48:28;99830.50;;;7.41;100.00
2549;BME280;1284;53.520;10.248;2023-01-30T03:50:54;99817.25;;;7.28;100.00
2549;BME280;1284;53.520;10.248;2023-01-30T03:53:20;99811.91;;;7.28;100.00
2549;BME280;1284;53.520;10.248;2023-01-30T03:55:45;99819.09;;;7.24;100.00
2549;BME280;1284;53.520;10.248;2023-01-30T03:58:11;99804.28;;;7.50;100.00
2549;BME280;1284;53.520;10.248;2023-01-30T04:00:38;99799.88;;;7.61;100.00
2549;BME280;1284;53.520;10.248;2023-01-30T04:03:03;99806.63;;;7.74;100.00
2549;BME280;1284;53.520;10.248;2023-01-30T04:05:30;99804.94;;;7.43;100.00
2549;BME280;1284;53.520;10.248;2023-01-30T04:08:01;99796.72;;;7.55;100.00
2549;BME280;1284;53.520;10.248;2023-01-30T04:10:27;99808.72;;;7.42;100.00
2549;BME280;1284;53.520;10.248;2023-01-30T04:12:52;99808.31;;;7.21;100.00
2549;BME280;1284;53.520;10.248;2023-01-30T04:15:19;99794.41;;;7.54;100.00
2549;BME280;1284;53.520;10.248;2023-01-30T04:18:09;99795.25;;;7.58;100.00
2549;BME280;1284;53.520;10.248;2023-01-30T04:20:47;99785.41;;;7.65;100.00
2549;BME280;1284;53.520;10.248;2023-01-30T04:23:15;99792.97;;;7.60;100.00
2549;BME280;1284;53.520;10.248;2023-01-30T04:25:45;99780.63;;;7.55;100.00
2549;BME280;1284;53.520;10.248;2023-01-30T04:28:11;99782.25;;;7.60;100.00
2549;BME280;1284;53.520;10.248;2023-01-30T04:30:37;99785.81;;;7.45;100.00
2549;BME280;1284;53.520;10.248;2023-01-30T04:33:22;99791.59;;;7.47;100.00
2549;BME280;1284;53.520;10.248;2023-01-30T04:35:56;99802.72;;;7.49;100.00
2549;BME280;1284;53.520;10.248;2023-01-30T04:38:22;99803.78;;;7.44;100.00
2549;BME280;1284;53.520;10.248;2023-01-30T04:40:53;99812.72;;;7.52;100.00
2549;BME280;1284;53.520;10.248;2023-01-30T04:43:20;99814.31;;;7.34;100.00
2549;BME280;1284;53.520;10.248;2023-01-30T04:45:47;99815.13;;;7.18;100.00
2549;BME280;1284;53.520;10.248;2023-01-30T04:48:13;99832.91;;;7.26;100.00
2549;BME280;1284;53.520;10.248;2023-01-30T04:50:42;99819.06;;;7.44;100.00
2549;BME280;1284;53.520;10.248;2023-01-30T04:53:08;99820.41;;;7.34;100.00
2549;BME280;1284;53.520;10.248;2023-01-30T04:55:35;99819.94;;;7.28;100.00
2549;BME280;1284;53.520;10.248;2023-01-30T04:58:01;99824.38;;;7.40;100.00
2549;BME280;1284;53.520;10.248;2023-01-30T05:00:27;99825.16;;;7.41;100.00
2549;BME280;1284;53.520;10.248;2023-01-30T05:02:57;99817.38;;;7.36;100.00
2549;BME280;1284;53.520;10.248;2023-01-30T05:05:23;99807.19;;;7.41;100.00
2549;BME280;1284;53.520;10.248;2023-01-30T05:07:49;99804.84;;;7.40;100.00
2549;BME280;1284;53.520;10.248;2023-01-30T05:10:15;99799.06;;;7.57;100.00
2549;BME280;1284;53.520;10.248;2023-01-30T05:12:41;99805.53;;;7.56;100.00
2549;BME280;1284;53.520;10.248;2023-01-30T05:15:07;99801.59;;;7.50;100.00
2549;BME280;1284;53.520;10.248;2023-01-30T05:17:33;99809.16;;;7.67;100.00
2549;BME280;1284;53.520;10.248;2023-01-30T05:19:59;99810.31;;;7.66;100.00
2549;BME280;1284;53.520;10.248;2023-01-30T05:22:24;99798.41;;;7.63;100.00
2549;BME280;1284;53.520;10.248;2023-01-30T05:24:50;99800.03;;;7.68;100.00
2549;BME280;1284;53.520;10.248;2023-01-30T05:27:15;99797.38;;;7.49;100.00
2549;BME280;1284;53.520;10.248;2023-01-30T05:29:41;99795.06;;;7.28;100.00
2549;BME280;1284;53.520;10.248;2023-01-30T05:32:10;99806.69;;;7.36;100.00
2549;BME280;1284;53.520;10.248;2023-01-30T05:34:36;99799.75;;;7.54;100.00
2549;BME280;1284;53.520;10.248;2023-01-30T05:37:02;99801.53;;;7.46;100.00
2549;BME280;1284;53.520;10.248;2023-01-30T05:39:27;99802.59;;;7.42;100.00
2549;BME280;1284;53.520;10.248;2023-01-30T05:41:53;99814.28;;;7.53;100.00
2549;BME280;1284;53.520;10.248;2023-01-30T05:44:18;99804.06;;;7.58;100.00
2549;BME280;1284;53.520;10.248;2023-01-30T05:46:44;99786.78;;;7.56;100.00
2549;BME280;1284;53.520;10.248;2023-01-30T05:49:09;99799.81;;;7.57;100.00
2549;BME280;1284;53.520;10.248;2023-01-30T05:51:34;99793.16;;;7.28;100.00
2549;BME280;1284;53.520;10.248;2023-01-30T05:54:00;99798.06;;;7.46;100.00
2549;BME280;1284;53.520;10.248;2023-01-30T05:56:25;99786.38;;;7.76;100.00
2549;BME280;1284;53.520;10.248;2023-01-30T05:58:54;99797.41;;;7.29;100.00
2549;BME280;1284;53.520;10.248;2023-01-30T06:01:21;99800.28;;;7.40;100.00
2549;BME280;1284;53.520;10.248;2023-01-30T06:03:47;99785.34;;;7.39;100.00
2549;BME280;1284;53.520;10.248;2023-01-30T06:06:13;99791.91;;;7.03;100.00
2549;BME280;1284;53.520;10.248;2023-01-30T06:08:39;99788.84;;;6.86;100.00
2549;BME280;1284;53.520;10.248;2023-01-30T06:11:17;99785.13;;;6.90;100.00
2549;BME280;1284;53.520;10.248;2023-01-30T06:13:43;99787.25;;;7.00;100.00
2549;BME280;1284;53.520;10.248;2023-01-30T06:16:10;99797.06;;;6.93;100.00
2549;BME280;1284;53.520;10.248;2023-01-30T06:18:37;99797.19;;;7.00;100.00
2549;BME280;1284;53.520;10.248;2023-01-30T06:21:03;99793.03;;;7.02;100.00
2549;BME280;1284;53.520;10.248;2023-01-30T06:23:29;99800.22;;;6.98;100.00
2549;BME280;1284;53.520;10.248;2023-01-30T06:25:55;99801.75;;;6.80;100.00
2549;BME280;1284;53.520;10.248;2023-01-30T06:28:22;99781.06;;;6.77;100.00
2549;BME280;1284;53.520;10.248;2023-01-30T06:30:48;99800.16;;;6.95;100.00
2549;BME280;1284;53.520;10.248;2023-01-30T06:33:13;99797.97;;;7.00;100.00
2549;BME280;1284;53.520;10.248;2023-01-30T06:35:40;99815.53;;;6.82;100.00
2549;BME280;1284;53.520;10.248;2023-01-30T06:38:06;99809.47;;;6.85;100.00
2549;BME280;1284;53.520;10.248;2023-01-30T06:40:36;99801.13;;;7.06;100.00
2549;BME280;1284;53.520;10.248;2023-01-30T06:43:02;99799.50;;;7.01;100.00
2549;BME280;1284;53.520;10.248;2023-01-30T06:45:28;99808.97;;;6.80;100.00
2549;BME280;1284;53.520;10.248;2023-01-30T06:47:54;99805.81;;;6.74;100.00
2549;BME280;1284;53.520;10.248;2023-01-30T06:50:23;99812.00;;;6.78;100.00
2549;BME280;1284;53.520;10.248;2023-01-30T06:52:50;99817.69;;;6.58;100.00
2549;BME280;1284;53.520;10.248;2023-01-30T06:55:18;99821.81;;;6.55;100.00
2549;BME280;1284;53.520;10.248;2023-01-30T06:57:44;99816.91;;;6.57;100.00
2549;BME280;1284;53.520;10.248;2023-01-30T07:00:12;99821.97;;;6.62;100.00
2549;BME280;1284;53.520;10.248;2023-01-30T07:02:39;99822.78;;;6.47;100.00
2549;BME280;1284;53.520;10.248;2023-01-30T07:05:06;99821.06;;;6.74;100.00
2549;BME280;1284;53.520;10.248;2023-01-30T07:07:32;99829.59;;;6.45;100.00
2549;BME280;1284;53.520;10.248;2023-01-30T07:09:58;99831.31;;;6.37;100.00
2549;BME280;1284;53.520;10.248;2023-01-30T07:12:24;99837.34;;;6.65;100.00
2549;BME280;1284;53.520;10.248;2023-01-30T07:14:53;99834.03;;;7.06;100.00
2549;BME280;1284;53.520;10.248;2023-01-30T07:17:19;99827.97;;;7.09;100.00
2549;BME280;1284;53.520;10.248;2023-01-30T07:19:45;99827.16;;;6.90;100.00
2549;BME280;1284;53.520;10.248;2023-01-30T07:22:11;99835.06;;;6.83;100.00
2549;BME280;1284;53.520;10.248;2023-01-30T07:24:37;99831.41;;;6.91;100.00
2549;BME280;1284;53.520;10.248;2023-01-30T07:27:07;99826.88;;;6.60;100.00
2549;BME280;1284;53.520;10.248;2023-01-30T07:29:35;99815.53;;;6.82;100.00
2549;BME280;1284;53.520;10.248;2023-01-30T07:32:01;99820.09;;;6.47;100.00
2549;BME280;1284;53.520;10.248;2023-01-30T07:37:13;99818.03;;;6.56;100.00
2549;BME280;1284;53.520;10.248;2023-01-30T07:39:38;99822.84;;;6.51;100.00
2549;BME280;1284;53.520;10.248;2023-01-30T07:42:04;99828.53;;;6.65;100.00
2549;BME280;1284;53.520;10.248;2023-01-30T07:44:29;99826.13;;;6.60;100.00
2549;BME280;1284;53.520;10.248;2023-01-30T07:46:55;99822.78;;;6.82;100.00
2549;BME280;1284;53.520;10.248;2023-01-30T07:49:20;99829.38;;;6.69;100.00
2549;BME280;1284;53.520;10.248;2023-01-30T07:51:46;99819.22;;;6.93;100.00
2549;BME280;1284;53.520;10.248;2023-01-30T07:54:11;99826.56;;;6.96;100.00
2549;BME280;1284;53.520;10.248;2023-01-30T07:56:37;99828.03;;;6.59;100.00
2549;BME280;1284;53.520;10.248;2023-01-30T07:59:03;99835.47;;;6.50;100.00
2549;BME280;1284;53.520;10.248;2023-01-30T08:01:30;99828.84;;;6.79;100.00
2549;BME280;1284;53.520;10.248;2023-01-30T08:03:56;99829.25;;;7.15;100.00
2549;BME280;1284;53.520;10.248;2023-01-30T08:06:22;99837.63;;;7.14;100.00
2549;BME280;1284;53.520;10.248;2023-01-30T08:08:47;99820.97;;;7.24;100.00
2549;BME280;1284;53.520;10.248;2023-01-30T08:11:13;99810.69;;;7.07;100.00
2549;BME280;1284;53.520;10.248;2023-01-30T08:13:39;99822.09;;;6.85;100.00
2549;BME280;1284;53.520;10.248;2023-01-30T08:16:06;99836.78;;;7.29;100.00
2549;BME280;1284;53.520;10.248;2023-01-30T08:18:32;99846.16;;;7.39;100.00
2549;BME280;1284;53.520;10.248;2023-01-30T08:21:00;99849.53;;;6.82;100.00
2549;BME280;1284;53.520;10.248;2023-01-30T08:23:26;99836.13;;;7.16;100.00
2549;BME280;1284;53.520;10.248;2023-01-30T08:26:00;99835.88;;;7.02;100.00
2549;BME280;1284;53.520;10.248;2023-01-30T08:28:27;99835.88;;;7.21;100.00
2549;BME280;1284;53.520;10.248;2023-01-30T08:30:53;99827.41;;;7.19;100.00
2549;BME280;1284;53.520;10.248;2023-01-30T08:33:19;99812.69;;;7.10;100.00
2549;BME280;1284;53.520;10.248;2023-01-30T08:35:46;99831.28;;;7.41;100.00
2549;BME280;1284;53.520;10.248;2023-01-30T08:38:12;99839.72;;;7.05;100.00
2549;BME280;1284;53.520;10.248;2023-01-30T08:40:37;99838.66;;;6.90;100.00
2549;BME280;1284;53.520;10.248;2023-01-30T08:43:04;99833.81;;;6.96;100.00
2549;BME280;1284;53.520;10.248;2023-01-30T08:45:30;99829.78;;;7.05;100.00
2549;BME280;1284;53.520;10.248;2023-01-30T08:48:03;99829.16;;;6.93;100.00
2549;BME280;1284;53.520;10.248;2023-01-30T08:50:30;99811.88;;;6.71;100.00
2549;BME280;1284;53.520;10.248;2023-01-30T08:52:56;99823.91;;;6.62;100.00
2549;BME280;1284;53.520;10.248;2023-01-30T08:55:21;99828.50;;;6.99;100.00
2549;BME280;1284;53.520;10.248;2023-01-30T08:57:47;99825.28;;;7.09;100.00
2549;BME280;1284;53.520;10.248;2023-01-30T09:00:13;99834.66;;;7.38;100.00
2549;BME280;1284;53.520;10.248;2023-01-30T09:02:39;99816.97;;;7.14;100.00
2549;BME280;1284;53.520;10.248;2023-01-30T09:05:05;99826.84;;;7.29;100.00
2549;BME280;1284;53.520;10.248;2023-01-30T09:07:31;99819.13;;;7.47;100.00
2549;BME280;1284;53.520;10.248;2023-01-30T09:09:57;99823.41;;;7.10;100.00
2549;BME280;1284;53.520;10.248;2023-01-30T09:12:22;99825.00;;;6.95;100.00
2549;BME280;1284;53.520;10.248;2023-01-30T09:14:48;99809.03;;;7.18;100.00
2549;BME280;1284;53.520;10.248;2023-01-30T09:17:13;99816.66;;;7.58;100.00
2549;BME280;1284;53.520;10.248;2023-01-30T09:19:39;99822.06;;;8.03;98.90
2549;BME280;1284;53.520;10.248;2023-01-30T09:22:05;99819.31;;;8.22;98.35
2549;BME280;1284;53.520;10.248;2023-01-30T09:24:32;99822.66;;;8.38;96.12
2549;BME280;1284;53.520;10.248;2023-01-30T09:26:57;99812.94;;;8.07;95.85
2549;BME280;1284;53.520;10.248;2023-01-30T09:29:26;99820.28;;;8.33;94.53
2549;BME280;1284;53.520;10.248;2023-01-30T09:31:52;99827.91;;;8.08;95.17
2549;BME280;1284;53.520;10.248;2023-01-30T09:34:18;99820.19;;;7.62;97.12
2549;BME280;1284;53.520;10.248;2023-01-30T09:36:44;99819.47;;;7.65;98.08
2549;BME280;1284;53.520;10.248;2023-01-30T09:39:09;99815.25;;;7.64;98.06
2549;BME280;1284;53.520;10.248;2023-01-30T09:41:45;99804.06;;;7.81;97.36
2549;BME280;1284;53.520;10.248;2023-01-30T09:46:55;99810.03;;;8.16;94.13
2549;BME280;1284;53.520;10.248;2023-01-30T09:55:26;99810.38;;;8.37;93.79
2549;BME280;1284;53.520;10.248;2023-01-30T09:57:56;99805.53;;;8.46;93.57
2549;BME280;1284;53.520;10.248;2023-01-30T10:00:32;99807.38;;;8.42;93.67
2549;BME280;1284;53.520;10.248;2023-01-30T10:03:09;99792.31;;;8.11;95.31
2549;BME280;1284;53.520;10.248;2023-01-30T10:11:00;99793.06;;;8.08;96.26
2549;BME280;1284;53.520;10.248;2023-01-30T10:13:39;99798.81;;;7.88;96.80
2549;BME280;1284;53.520;10.248;2023-01-30T10:16:20;99800.38;;;8.11;96.41
2549;BME280;1284;53.520;10.248;2023-01-30T10:19:10;99802.41;;;7.73;97.73
2549;BME280;1284;53.520;10.248;2023-01-30T10:21:53;99791.78;;;7.57;99.03
2549;BME280;1284;53.520;10.248;2023-01-30T10:27:31;99784.84;;;7.14;100.00
2549;BME280;1284;53.520;10.248;2023-01-30T10:30:01;99773.56;;;7.24;100.00
2549;BME280;1284;53.520;10.248;2023-01-30T10:32:50;99795.22;;;7.16;100.00
2549;BME280;1284;53.520;10.248;2023-01-30T10:35:31;99797.38;;;7.10;100.00
2549;BME280;1284;53.520;10.248;2023-01-30T10:38:20;99788.66;;;6.75;100.00
2549;BME280;1284;53.520;10.248;2023-01-30T10:44:02;99769.03;;;6.87;100.00
2549;BME280;1284;53.520;10.248;2023-01-30T10:49:40;99754.06;;;6.86;100.00
2549;BME280;1284;53.520;10.248;2023-01-30T10:55:05;99744.84;;;7.21;100.00
2549;BME280;1284;53.520;10.248;2023-01-30T11:00:21;99737.25;;;6.85;100.00
2549;BME280;1284;53.520;10.248;2023-01-30T11:06:15;99745.91;;;7.40;100.00
2549;BME280;1284;53.520;10.248;2023-01-30T11:08:42;99732.06;;;7.34;100.00
2549;BME280;1284;53.520;10.248;2023-01-30T11:11:30;99761.19;;;7.16;100.00
2549;BME280;1284;53.520;10.248;2023-01-30T11:14:05;99759.47;;;7.08;100.00
2549;BME280;1284;53.520;10.248;2023-01-30T11:16:39;99785.56;;;6.92;100.00
2549;BME280;1284;53.520;10.248;2023-01-30T11:19:05;99786.59;;;6.34;100.00
2549;BME280;1284;53.520;10.248;2023-01-30T11:21:31;99799.88;;;5.99;100.00
2549;BME280;1284;53.520;10.248;2023-01-30T11:24:02;99794.97;;;6.17;100.00
2549;BME280;1284;53.520;10.248;2023-01-30T11:26:32;99816.94;;;5.95;100.00
2549;BME280;1284;53.520;10.248;2023-01-30T11:28:58;99801.09;;;6.02;100.00
2549;BME280;1284;53.520;10.248;2023-01-30T11:31:28;99815.13;;;5.83;100.00
2549;BME280;1284;53.520;10.248;2023-01-30T11:33:59;99822.16;;;5.76;100.00
2549;BME280;1284;53.520;10.248;2023-01-30T11:36:28;99811.25;;;6.12;100.00
2549;BME280;1284;53.520;10.248;2023-01-30T11:38:59;99810.47;;;6.43;100.00
2549;BME280;1284;53.520;10.248;2023-01-30T11:41:25;99806.22;;;6.42;100.00
2549;BME280;1284;53.520;10.248;2023-01-30T11:43:58;99797.09;;;6.43;100.00
2549;BME280;1284;53.520;10.248;2023-01-30T11:46:25;99804.56;;;6.53;100.00
2549;BME280;1284;53.520;10.248;2023-01-30T11:48:58;99799.88;;;6.30;100.00
2549;BME280;1284;53.520;10.248;2023-01-30T11:51:24;99795.06;;;6.20;100.00
2549;BME280;1284;53.520;10.248;2023-01-30T11:54:01;99799.69;;;6.23;100.00
2549;BME280;1284;53.520;10.248;2023-01-30T11:56:37;99799.88;;;6.15;100.00
2549;BME280;1284;53.520;10.248;2023-01-30T11:59:06;99808.75;;;6.19;100.00
2549;BME280;1284;53.520;10.248;2023-01-30T12:01:34;99797.81;;;6.24;100.00
2549;BME280;1284;53.520;10.248;2023-01-30T12:04:05;99796.38;;;6.80;100.00
2549;BME280;1284;53.520;10.248;2023-01-30T12:06:36;99789.94;;;7.00;100.00
2549;BME280;1284;53.520;10.248;2023-01-30T12:09:02;99789.28;;;7.07;100.00
2549;BME280;1284;53.520;10.248;2023-01-30T12:16:44;99758.63;;;7.43;100.00
2549;BME280;1284;53.520;10.248;2023-01-30T12:24:54;99763.81;;;7.55;100.00
2549;BME280;1284;53.520;10.248;2023-01-30T12:32:35;99741.22;;;7.33;100.00
2549;BME280;1284;53.520;10.248;2023-01-30T12:35:13;99751.88;;;7.29;100.00
2549;BME280;1284;53.520;10.248;2023-01-30T12:37:53;99755.41;;;7.34;100.00
2549;BME280;1284;53.520;10.248;2023-01-30T12:45:58;99782.03;;;6.88;100.00
2549;BME280;1284;53.520;10.248;2023-01-30T12:48:33;99789.03;;;6.58;100.00
2549;BME280;1284;53.520;10.248;2023-01-30T12:51:29;99804.41;;;6.46;100.00
2549;BME280;1284;53.520;10.248;2023-01-30T12:54:22;99801.50;;;6.19;100.00
2549;BME280;1284;53.520;10.248;2023-01-30T12:57:03;99792.66;;;6.15;100.00
2549;BME280;1284;53.520;10.248;2023-01-30T12:59:59;99788.47;;;6.33;100.00
2549;BME280;1284;53.520;10.248;2023-01-30T13:02:58;99786.41;;;6.43;100.00
2549;BME280;1284;53.520;10.248;2023-01-30T13:18:51;99793.28;;;7.36;100.00
2549;BME280;1284;53.520;10.248;2023-01-30T13:24:16;99810.09;;;7.13;100.00
2549;BME280;1284;53.520;10.248;2023-01-30T13:26:45;99798.22;;;7.14;100.00
2549;BME280;1284;53.520;10.248;2023-01-30T13:29:22;99794.50;;;7.19;100.00
2549;BME280;1284;53.520;10.248;2023-01-30T13:31:56;99802.31;;;7.08;100.00
2549;BME280;1284;53.520;10.248;2023-01-30T13:34:32;99814.44;;;7.41;100.00
2549;BME280;1284;53.520;10.248;2023-01-30T13:37:01;99813.59;;;7.37;100.00
2549;BME280;1284;53.520;10.248;2023-01-30T13:39:37;99798.63;;;7.36;100.00
2549;BME280;1284;53.520;10.248;2023-01-30T13:42:09;99809.66;;;7.11;100.00
2549;BME280;1284;53.520;10.248;2023-01-30T13:44:41;99810.22;;;7.01;100.00
2549;BME280;1284;53.520;10.248;2023-01-30T13:48:00;99805.56;;;6.98;100.00
2549;BME280;1284;53.520;10.248;2023-01-30T13:55:46;99837.41;;;7.03;100.00
2549;BME280;1284;53.520;10.248;2023-01-30T14:01:12;99878.84;;;7.28;100.00
2549;BME280;1284;53.520;10.248;2023-01-30T14:03:39;99879.97;;;7.27;100.00
2549;BME280;1284;53.520;10.248;2023-01-30T14:08:55;99866.16;;;7.06;100.00
2549;BME280;1284;53.520;10.248;2023-01-30T14:11:33;99866.34;;;6.98;100.00
2549;BME280;1284;53.520;10.248;2023-01-30T14:14:03;99866.16;;;7.06;100.00
2549;BME280;1284;53.520;10.248;2023-01-30T14:16:44;99893.84;;;7.14;100.00
2549;BME280;1284;53.520;10.248;2023-01-30T14:21:57;99887.91;;;7.24;100.00
2549;BME280;1284;53.520;10.248;2023-01-30T14:24:23;99890.53;;;7.20;100.00
2549;BME280;1284;53.520;10.248;2023-01-30T14:40:01;99916.44;;;7.16;100.00
2549;BME280;1284;53.520;10.248;2023-01-30T14:42:29;99927.44;;;7.11;100.00
2549;BME280;1284;53.520;10.248;2023-01-30T14:45:15;99941.56;;;6.93;100.00
2549;BME280;1284;53.520;10.248;2023-01-30T14:47:41;99951.47;;;6.92;100.00
2549;BME280;1284;53.520;10.248;2023-01-30T14:50:33;99968.88;;;7.17;100.00
2549;BME280;1284;53.520;10.248;2023-01-30T14:52:58;99961.28;;;7.19;100.00
2549;BME280;1284;53.520;10.248;2023-01-30T14:55:25;99993.63;;;7.30;100.00
2549;BME280;1284;53.520;10.248;2023-01-30T14:58:01;100006.88;;;7.07;100.00
2549;BME280;1284;53.520;10.248;2023-01-30T15:00:32;100017.06;;;7.17;100.00
2549;BME280;1284;53.520;10.248;2023-01-30T15:03:06;100014.56;;;7.09;100.00
2549;BME280;1284;53.520;10.248;2023-01-30T15:05:40;100028.00;;;7.28;100.00
2549;BME280;1284;53.520;10.248;2023-01-30T15:08:12;100032.84;;;7.22;100.00
2549;BME280;1284;53.520;10.248;2023-01-30T15:29:59;100081.75;;;7.04;99.34
2549;BME280;1284;53.520;10.248;2023-01-30T15:32:28;100098.81;;;6.84;100.00
2549;BME280;1284;53.520;10.248;2023-01-30T15:35:11;100096.44;;;6.94;99.74
2549;BME280;1284;53.520;10.248;2023-01-30T15:42:52;100128.22;;;7.11;98.16
2549;BME280;1284;53.520;10.248;2023-01-30T15:50:28;100158.34;;;7.08;97.38
2549;BME280;1284;53.520;10.248;2023-01-30T15:52:53;100158.09;;;7.13;96.23
2549;BME280;1284;53.520;10.248;2023-01-30T15:55:33;100156.44;;;7.09;95.87
2549;BME280;1284;53.520;10.248;2023-01-30T15:58:03;100174.75;;;7.22;94.92
2549;BME280;1284;53.520;10.248;2023-01-30T16:00:34;100173.38;;;7.13;95.46
2549;BME280;1284;53.520;10.248;2023-01-30T16:03:02;100188.50;;;7.21;95.15
2549;BME280;1284;53.520;10.248;2023-01-30T16:05:29;100192.59;;;7.03;95.86
2549;BME280;1284;53.520;10.248;2023-01-30T16:07:55;100204.00;;;7.27;95.17